Time;durP1;ratioP1;P1;durP2;ratioP2;P2;SDS_P1;SDS_P2;PMS_P1;PMS_P2;Temp;Humidity;BMP_temperature;BMP_pressure;BME280_temperature;BME280_humidity;BME280_pressure;Samples;Min_cycle;Max_cycle;Signal;HPM_P1;HPM_P2
2023/08/04 00:01:30;;;;;;;13.70;12.20;;;;;;;19.64;100.00;96930.78;110291;1242;68490;-67
2023/08/04 00:04:02;;;;;;;14.00;12.30;;;;;;;19.61;100.00;96929.01;110243;1241;69360;-68
2023/08/04 00:06:32;;;;;;;13.20;10.80;;;;;;;19.56;100.00;96931.69;110257;1242;59708;-67
2023/08/04 00:09:01;;;;;;;12.80;11.40;;;;;;;19.51;100.00;96931.56;110274;1242;59676;-67
2023/08/04 00:11:31;;;;;;;12.90;11.20;;;;;;;19.46;100.00;96931.04;110247;1242;71251;-67
2023/08/04 00:14:01;;;;;;;13.40;11.20;;;;;;;19.45;100.00;96934.88;110280;1241;69808;-67
2023/08/04 00:16:33;;;;;;;13.50;12.10;;;;;;;19.45;100.00;96935.09;110236;1242;68287;-65
2023/08/04 00:19:03;;;;;;;14.20;12.50;;;;;;;19.44;100.00;96932.30;110175;1241;59708;-67
2023/08/04 00:21:33;;;;;;;15.50;12.60;;;;;;;19.44;100.00;96931.65;110227;1241;59672;-64
2023/08/04 00:24:04;;;;;;;16.60;12.60;;;;;;;19.41;100.00;96933.55;110172;1240;71543;-65
2023/08/04 00:26:33;;;;;;;13.10;11.80;;;;;;;19.39;100.00;96928.84;110240;1241;69594;-66
2023/08/04 00:29:04;;;;;;;15.00;11.90;;;;;;;19.35;100.00;96933.09;110220;1242;69277;-68
2023/08/04 00:31:35;;;;;;;15.90;12.60;;;;;;;19.28;100.00;96935.89;110217;1242;59686;-66
2023/08/04 00:34:06;;;;;;;14.40;12.00;;;;;;;19.24;100.00;96935.69;110280;1241;59734;-67
2023/08/04 00:36:37;;;;;;;13.90;12.40;;;;;;;19.22;100.00;96930.50;110269;1242;70457;-67
2023/08/04 00:39:07;;;;;;;14.10;12.60;;;;;;;19.21;100.00;96931.74;110198;1245;69203;-67
2023/08/04 00:41:37;;;;;;;15.10;13.00;;;;;;;19.18;100.00;96925.60;110161;1241;69234;-67
2023/08/04 00:44:07;;;;;;;14.50;12.40;;;;;;;19.18;100.00;96922.68;110194;1243;59736;-66
2023/08/04 00:46:40;;;;;;;13.10;11.70;;;;;;;19.18;100.00;96922.98;110281;1242;59617;-65
2023/08/04 00:49:11;;;;;;;13.80;11.90;;;;;;;19.19;100.00;96921.00;110167;1241;71361;-68
2023/08/04 00:51:43;;;;;;;13.90;12.00;;;;;;;19.18;100.00;96914.71;110276;1242;69228;-67
2023/08/04 00:54:18;;;;;;;14.90;11.90;;;;;;;19.18;100.00;96917.00;110238;1242;68944;-67
2023/08/04 00:56:54;;;;;;;14.50;11.90;;;;;;;19.17;100.00;96916.40;110253;1241;59731;-68
2023/08/04 00:59:24;;;;;;;13.70;12.20;;;;;;;19.16;100.00;96916.84;110306;1240;59757;-67
2023/08/04 01:01:56;;;;;;;17.60;13.10;;;;;;;19.15;100.00;96921.95;110294;1242;71317;-67
2023/08/04 01:04:30;;;;;;;15.80;12.90;;;;;;;19.12;100.00;96921.98;110168;1243;69607;-68
2023/08/04 01:07:25;;;;;;;16.60;12.80;;;;;;;19.09;100.00;96922.69;110236;1242;68703;-68
2023/08/04 01:09:58;;;;;;;14.30;12.20;;;;;;;19.05;100.00;96922.69;110250;1242;59725;-68
2023/08/04 01:12:41;;;;;;;14.00;11.70;;;;;;;19.04;100.00;96918.23;110231;1241;59697;-66
2023/08/04 01:15:14;;;;;;;13.80;11.10;;;;;;;19.02;100.00;96919.16;110256;1242;71394;-67
2023/08/04 01:17:44;;;;;;;16.10;12.40;;;;;;;19.01;100.00;96918.81;110223;1242;68771;-67
2023/08/04 01:20:17;;;;;;;16.80;12.80;;;;;;;18.96;100.00;96916.52;110231;1242;68151;-68
2023/08/04 01:22:48;;;;;;;13.70;11.50;;;;;;;18.94;100.00;96916.20;110186;1241;59683;-67
2023/08/04 01:25:22;;;;;;;14.00;12.40;;;;;;;18.94;100.00;96916.79;110249;1241;59691;-68
2023/08/04 01:28:04;;;;;;;15.20;12.60;;;;;;;18.92;100.00;96920.48;110217;1242;71450;-67
2023/08/04 01:30:35;;;;;;;16.40;13.00;;;;;;;18.92;100.00;96919.70;110285;1242;69200;-67
2023/08/04 01:33:08;;;;;;;14.50;12.20;;;;;;;18.90;100.00;96919.39;110206;1241;69285;-67
2023/08/04 01:35:40;;;;;;;14.80;12.00;;;;;;;18.90;100.00;96921.09;110145;1251;59708;-66
2023/08/04 01:38:11;;;;;;;14.70;12.10;;;;;;;18.91;100.00;96919.63;110217;1240;59651;-65
2023/08/04 01:40:41;;;;;;;13.00;11.20;;;;;;;18.89;100.00;96921.42;110238;1243;70827;-66
2023/08/04 01:43:12;;;;;;;13.60;12.20;;;;;;;18.86;100.00;96921.06;110202;1242;69051;-66
2023/08/04 01:45:42;;;;;;;13.90;11.90;;;;;;;18.82;100.00;96924.15;110144;1244;69877;-66
2023/08/04 01:48:14;;;;;;;14.70;11.60;;;;;;;18.76;100.00;96924.33;110187;1242;59753;-67
2023/08/04 01:50:44;;;;;;;13.60;11.70;;;;;;;18.74;100.00;96927.31;110243;1241;59691;-68
2023/08/04 01:53:14;;;;;;;14.10;11.60;;;;;;;18.71;100.00;96921.87;110234;1240;71217;-68
2023/08/04 01:55:50;;;;;;;12.80;11.20;;;;;;;18.67;100.00;96924.38;110259;1242;69644;-68
2023/08/04 01:58:22;;;;;;;13.90;12.00;;;;;;;18.63;100.00;96924.54;110189;1243;68235;-68
2023/08/04 02:01:00;;;;;;;13.70;11.30;;;;;;;18.59;100.00;96921.98;110248;1242;59670;-68
2023/08/04 02:03:36;;;;;;;14.70;12.40;;;;;;;18.55;100.00;96921.33;110270;1241;59681;-67
2023/08/04 02:06:08;;;;;;;15.10;12.90;;;;;;;18.52;100.00;96922.34;110150;1244;71413;-67
2023/08/04 02:08:44;;;;;;;15.60;12.90;;;;;;;18.49;100.00;96920.30;110211;1240;69248;-67
2023/08/04 02:11:18;;;;;;;13.90;12.30;;;;;;;18.45;100.00;96917.88;110288;1242;68528;-67
2023/08/04 02:13:51;;;;;;;13.60;11.80;;;;;;;18.44;100.00;96917.34;110276;1242;59808;-68
2023/08/04 02:16:22;;;;;;;13.10;11.70;;;;;;;18.43;100.00;96916.76;110255;1242;60100;-67
2023/08/04 02:19:04;;;;;;;16.00;12.90;;;;;;;18.44;100.00;96914.30;110244;1242;70812;-65
2023/08/04 02:21:36;;;;;;;14.40;12.20;;;;;;;18.42;100.00;96915.40;110300;1240;68385;-68
2023/08/04 02:24:12;;;;;;;16.20;13.90;;;;;;;18.37;100.00;96920.76;110251;1242;69188;-68
2023/08/04 02:26:50;;;;;;;15.90;13.40;;;;;;;18.35;100.00;96917.46;110125;1245;59766;-67
2023/08/04 02:29:22;;;;;;;13.30;11.90;;;;;;;18.33;100.00;96914.61;110279;1242;59665;-68
2023/08/04 02:31:56;;;;;;;15.30;12.60;;;;;;;18.32;100.00;96914.52;110271;1242;70749;-67
2023/08/04 02:34:28;;;;;;;15.80;13.90;;;;;;;18.33;100.00;96914.61;110238;1242;67505;-67
2023/08/04 02:37:00;;;;;;;16.70;13.90;;;;;;;18.32;100.00;96916.90;110266;1242;69175;-68
2023/08/04 02:39:35;;;;;;;14.70;12.30;;;;;;;18.28;100.00;96911.80;110245;1242;59756;-68
2023/08/04 02:42:16;;;;;;;14.20;12.60;;;;;;;18.25;100.00;96912.50;110301;1242;60138;-68
2023/08/04 02:44:54;;;;;;;15.90;13.40;;;;;;;18.22;100.00;96913.94;110180;1243;71225;-67
2023/08/04 02:47:25;;;;;;;14.90;12.80;;;;;;;18.19;100.00;96912.33;110204;1241;68835;-67
2023/08/04 02:49:58;;;;;;;15.60;13.00;;;;;;;18.17;100.00;96909.23;110235;1242;69334;-68
2023/08/04 02:52:28;;;;;;;16.60;14.00;;;;;;;18.15;100.00;96909.79;110226;1240;59743;-68
2023/08/04 02:55:05;;;;;;;16.80;13.00;;;;;;;18.14;100.00;96909.13;110229;1247;59722;-67
2023/08/04 02:57:36;;;;;;;16.70;14.30;;;;;;;18.12;100.00;96911.05;110234;1241;71418;-67
2023/08/04 03:00:09;;;;;;;15.70;13.40;;;;;;;18.11;100.00;96914.15;110292;1240;68547;-68
2023/08/04 03:02:41;;;;;;;15.80;12.70;;;;;;;18.07;100.00;96920.17;110203;1240;69150;-67
2023/08/04 03:05:12;;;;;;;15.80;13.40;;;;;;;18.03;100.00;96920.95;110273;1240;59757;-68
2023/08/04 03:07:42;;;;;;;16.70;13.20;;;;;;;18.02;100.00;96924.13;110267;1241;59738;-68
2023/08/04 03:10:13;;;;;;;16.10;13.70;;;;;;;18.01;100.00;96925.04;110244;1242;70559;-68
2023/08/04 03:12:44;;;;;;;16.10;13.30;;;;;;;17.97;100.00;96921.69;110258;1243;68362;-68
2023/08/04 03:15:14;;;;;;;15.80;13.60;;;;;;;18.00;100.00;96919.37;110268;1241;69890;-68
2023/08/04 03:17:43;;;;;;;16.70;13.80;;;;;;;18.03;100.00;96917.02;110186;1242;59756;-65
2023/08/04 03:20:14;;;;;;;15.60;12.40;;;;;;;18.05;100.00;96919.39;110195;1242;59730;-66
2023/08/04 03:22:46;;;;;;;15.70;12.30;;;;;;;18.08;100.00;96919.25;110227;1240;71458;-66
2023/08/04 03:25:17;;;;;;;15.00;13.00;;;;;;;18.10;100.00;96923.55;110219;1248;69048;-67
2023/08/04 03:27:46;;;;;;;;;;;;;;;18.09;100.00;96922.29;110205;1249;69897;-66
2023/08/04 03:30:17;;;;;;;12.70;10.90;;;;;;;18.09;100.00;96920.23;110213;1240;59750;-65
2023/08/04 03:32:47;;;;;;;15.60;11.70;;;;;;;18.10;100.00;96924.86;110183;1242;59621;-65
2023/08/04 03:35:17;;;;;;;14.10;12.20;;;;;;;18.10;100.00;96931.40;110195;1241;71202;-67
2023/08/04 03:37:49;;;;;;;13.50;11.70;;;;;;;18.12;100.00;96934.30;110199;1241;68599;-66
2023/08/04 03:40:19;;;;;;;12.60;11.30;;;;;;;18.14;100.00;96927.40;110159;1240;69208;-67
2023/08/04 03:42:49;;;;;;;;;;;;;;;18.14;100.00;96935.33;110206;1240;59731;-68
2023/08/04 03:45:18;;;;;;;;;;;;;;;18.14;100.00;96938.63;110237;1242;59678;-68
2023/08/04 03:47:48;;;;;;;;;;;;;;;18.17;100.00;96943.94;110238;1240;71097;-66
2023/08/04 03:50:19;;;;;;;13.10;11.40;;;;;;;18.23;100.00;96947.54;110278;1240;67644;-68
2023/08/04 03:52:50;;;;;;;14.90;12.20;;;;;;;18.25;100.00;96946.20;110200;1242;69399;-66
2023/08/04 03:55:20;;;;;;;16.20;12.30;;;;;;;18.26;100.00;96947.69;110215;1241;59699;-67
2023/08/04 03:57:50;;;;;;;15.80;12.60;;;;;;;18.29;100.00;96940.52;110234;1240;59667;-67
2023/08/04 04:00:21;;;;;;;13.60;12.10;;;;;;;18.33;100.00;96941.27;110206;1242;70611;-66
2023/08/04 04:02:52;;;;;;;14.80;12.50;;;;;;;18.39;100.00;96944.40;110219;1241;69188;-67
2023/08/04 04:05:22;;;;;;;13.70;11.20;;;;;;;18.42;100.00;96941.54;110198;1242;69259;-69
2023/08/04 04:07:55;;;;;;;13.50;11.50;;;;;;;18.47;100.00;96942.61;110164;1241;59596;-68
2023/08/04 04:10:25;;;;;;;13.90;11.90;;;;;;;18.49;100.00;96946.73;110217;1242;59666;-67
2023/08/04 04:12:55;;;;;;;17.10;13.50;;;;;;;18.57;100.00;96946.14;110213;1242;71835;-67
2023/08/04 04:15:25;;;;;;;15.40;11.90;;;;;;;18.64;100.00;96945.61;110222;1242;69679;-67
2023/08/04 04:17:55;;;;;;;12.70;11.00;;;;;;;18.72;100.00;96946.59;110183;1242;68724;-67
2023/08/04 04:20:26;;;;;;;13.40;11.60;;;;;;;18.85;100.00;96949.15;110218;1242;59738;-67
2023/08/04 04:22:56;;;;;;;14.50;11.60;;;;;;;19.05;100.00;96948.17;110190;1241;59791;-68
2023/08/04 04:25:26;;;;;;;13.30;11.90;;;;;;;19.31;100.00;96951.30;110167;1242;70465;-67
2023/08/04 04:27:56;;;;;;;14.60;11.00;;;;;;;19.53;100.00;96954.69;110193;1241;69086;-66
2023/08/04 04:30:26;;;;;;;;;;;;;;;19.84;100.00;96954.96;110196;1242;69281;-67
2023/08/04 04:32:56;;;;;;;12.20;10.90;;;;;;;20.06;100.00;96953.55;110190;1242;59685;-67
2023/08/04 04:35:26;;;;;;;11.40;10.20;;;;;;;20.21;100.00;96956.52;110187;1241;59664;-67
2023/08/04 04:37:56;;;;;;;13.00;11.50;;;;;;;20.35;100.00;96958.96;110224;1241;69667;-67
2023/08/04 04:40:26;;;;;;;13.30;11.20;;;;;;;20.45;100.00;96959.70;110164;1241;69479;-66
2023/08/04 04:42:55;;;;;;;;;;;;;;;20.51;100.00;96960.89;110147;1243;69590;-66
2023/08/04 04:45:25;;;;;;;11.60;10.40;;;;;;;20.56;100.00;96965.41;110193;1242;59812;-66
2023/08/04 04:47:55;;;;;;;14.00;11.20;;;;;;;20.65;100.00;96967.92;110182;1242;59633;-67
2023/08/04 04:50:26;;;;;;;14.30;11.30;;;;;;;20.71;100.00;96965.88;110205;1240;70643;-65
2023/08/04 04:52:56;;;;;;;14.80;11.80;;;;;;;20.74;100.00;96968.44;110135;1240;68369;-67
2023/08/04 04:55:26;;;;;;;13.60;11.20;;;;;;;20.75;100.00;96972.63;110179;1243;68564;-68
2023/08/04 04:57:55;;;;;;;14.30;12.50;;;;;;;20.79;100.00;96976.30;110122;1241;59732;-67
2023/08/04 05:00:25;;;;;;;13.80;11.30;;;;;;;20.88;100.00;96972.56;110161;1242;59693;-67
2023/08/04 05:02:54;;;;;;;11.90;10.70;;;;;;;21.02;100.00;96973.66;110128;1241;70879;-68
2023/08/04 05:05:23;;;;;;;14.20;10.80;;;;;;;21.22;100.00;96972.77;110193;1242;69095;-67
2023/08/04 05:07:53;;;;;;;12.00;10.80;;;;;;;21.43;100.00;96975.20;110166;1242;69742;-66
2023/08/04 05:10:22;;;;;;;12.70;11.00;;;;;;;21.64;100.00;96973.28;110155;1242;59657;-66
2023/08/04 05:12:52;;;;;;;12.50;11.00;;;;;;;21.87;100.00;96973.37;110186;1242;59682;-68
2023/08/04 05:15:22;;;;;;;12.20;10.90;;;;;;;22.20;100.00;96972.98;110174;1241;71732;-68
2023/08/04 05:17:51;;;;;;;10.80;9.80;;;;;;;22.55;100.00;96973.98;110212;1240;69044;-69
2023/08/04 05:20:20;;;;;;;;;;;;;;;22.90;100.00;96973.16;110213;1242;68436;-70
2023/08/04 05:22:51;;;;;;;12.20;9.90;;;;;;;23.19;99.83;96971.83;110191;1241;59741;-68
2023/08/04 05:25:20;;;;;;;11.50;10.30;;;;;;;23.57;98.71;96969.36;110211;1242;59673;-67
2023/08/04 05:27:50;;;;;;;13.70;11.90;;;;;;;23.95;98.44;96971.59;110242;1242;71932;-67
2023/08/04 05:30:19;;;;;;;11.80;10.60;;;;;;;24.37;99.86;96970.65;110228;1242;69858;-65
2023/08/04 05:32:49;;;;;;;10.50;9.50;;;;;;;24.91;99.42;96966.69;110213;1242;69897;-66
2023/08/04 05:35:18;;;;;;;12.60;11.30;;;;;;;25.35;95.68;96971.74;110161;1240;59736;-68
2023/08/04 05:37:47;;;;;;;;;;;;;;;25.47;87.21;96968.81;110208;1242;59753;-67
2023/08/04 05:40:16;;;;;;;11.80;10.50;;;;;;;25.39;83.98;96970.31;110145;1242;71568;-68
2023/08/04 05:42:44;;;;;;;12.10;10.90;;;;;;;25.39;83.74;96969.90;110164;1241;69798;-67
2023/08/04 05:45:14;;;;;;;11.00;9.90;;;;;;;25.67;83.64;96967.66;110173;1242;69259;-66
2023/08/04 05:47:44;;;;;;;10.80;9.40;;;;;;;26.04;84.51;96969.05;110139;1242;59750;-67
2023/08/04 05:50:13;;;;;;;9.80;8.70;;;;;;;26.40;82.94;96971.02;110186;1241;59689;-67
2023/08/04 05:52:42;;;;;;;10.10;8.90;;;;;;;26.36;75.67;96968.95;110217;1242;72057;-68
2023/08/04 05:55:12;;;;;;;9.60;8.40;;;;;;;26.48;75.29;96966.95;110158;1241;68924;-67
2023/08/04 05:57:41;;;;;;;9.10;8.20;;;;;;;26.57;73.13;96970.45;110167;1241;68799;-67
2023/08/04 06:00:11;;;;;;;9.40;8.20;;;;;;;26.62;73.71;96967.54;110194;1242;59767;-67
2023/08/04 06:02:45;;;;;;;9.30;7.90;;;;;;;26.80;72.60;96970.33;110191;1242;59719;-68
2023/08/04 06:05:14;;;;;;;9.10;8.20;;;;;;;26.80;71.29;96968.86;110211;1242;71362;-68
2023/08/04 06:07:44;;;;;;;8.30;7.50;;;;;;;26.91;71.23;96969.33;110147;1242;69275;-67
2023/08/04 06:10:16;;;;;;;8.10;7.30;;;;;;;26.88;71.06;96970.65;110168;1241;69295;-67
2023/08/04 06:12:47;;;;;;;8.00;7.20;;;;;;;27.10;69.53;96967.73;110181;1242;59745;-65
2023/08/04 06:15:17;;;;;;;8.10;7.40;;;;;;;27.48;68.73;96971.92;110175;1241;60129;-68
2023/08/04 06:17:47;;;;;;;8.60;7.80;;;;;;;27.83;67.46;96967.02;110157;1242;71413;-68
2023/08/04 06:20:17;;;;;;;8.40;7.50;;;;;;;27.90;66.69;96963.73;110191;1242;69098;-67
2023/08/04 06:22:50;;;;;;;8.90;8.10;;;;;;;28.20;68.28;96967.55;110185;1242;69219;-68
2023/08/04 06:25:20;;;;;;;8.00;7.20;;;;;;;28.30;65.87;96964.94;110189;1242;59715;-67
2023/08/04 06:27:49;;;;;;;8.60;7.80;;;;;;;28.39;65.19;96956.48;110197;1243;59606;-67
2023/08/04 06:30:19;;;;;;;7.90;7.20;;;;;;;28.54;64.21;96954.95;110150;1242;71817;-68
2023/08/04 06:32:49;;;;;;;8.60;7.80;;;;;;;28.74;63.94;96954.27;110203;1242;68491;-67
2023/08/04 06:35:19;;;;;;;8.90;8.10;;;;;;;28.78;63.37;96957.66;110161;1242;68695;-67
2023/08/04 06:37:49;;;;;;;8.00;7.20;;;;;;;28.74;63.54;96963.09;110199;1241;59766;-68
2023/08/04 06:40:18;;;;;;;8.50;7.60;;;;;;;29.10;63.18;96963.09;110238;1242;59703;-68
2023/08/04 06:42:47;;;;;;;9.70;8.40;;;;;;;29.04;62.73;96962.33;110194;1242;70555;-69
2023/08/04 06:45:18;;;;;;;8.30;7.50;;;;;;;29.34;63.29;96967.40;110190;1242;70129;-68
2023/08/04 06:47:47;;;;;;;8.20;7.40;;;;;;;29.67;61.40;96965.04;110174;1241;69863;-67
2023/08/04 06:50:17;;;;;;;8.60;7.60;;;;;;;29.64;59.85;96962.94;110201;1240;59676;-67
2023/08/04 06:52:47;;;;;;;8.70;7.70;;;;;;;29.78;59.91;96961.98;110204;1242;59670;-67
2023/08/04 06:55:17;;;;;;;8.70;7.80;;;;;;;30.03;59.71;96964.59;110155;1242;71219;-67
2023/08/04 06:57:46;;;;;;;8.40;7.50;;;;;;;30.10;58.67;96965.35;110169;1242;69199;-66
2023/08/04 07:00:17;;;;;;;8.90;8.00;;;;;;;30.06;57.50;96965.50;110132;1242;69150;-66
2023/08/04 07:02:47;;;;;;;9.20;8.30;;;;;;;30.09;58.07;96965.60;110199;1242;59638;-69
2023/08/04 07:05:17;;;;;;;8.50;7.70;;;;;;;30.05;59.17;96965.17;110169;1242;60078;-66
2023/08/04 07:07:49;;;;;;;8.40;7.60;;;;;;;30.15;58.13;96968.02;110168;1241;71978;-66
2023/08/04 07:10:19;;;;;;;7.80;7.00;;;;;;;29.93;57.82;96967.75;110176;1242;70495;-66
2023/08/04 07:12:48;;;;;;;8.70;7.90;;;;;;;30.30;58.63;96967.55;110147;1242;69724;-67
2023/08/04 07:15:18;;;;;;;8.00;7.20;;;;;;;30.34;57.81;96969.16;110189;1240;60225;-67
2023/08/04 07:17:48;;;;;;;7.80;7.00;;;;;;;30.71;57.58;96969.47;110153;1242;59704;-66
2023/08/04 07:20:17;;;;;;;8.20;6.90;;;;;;;30.91;55.90;96962.34;110126;1242;71822;-69
2023/08/04 07:22:46;;;;;;;8.30;7.50;;;;;;;31.08;55.94;96961.34;110182;1242;69213;-67
2023/08/04 07:25:15;;;;;;;8.40;7.60;;;;;;;31.22;55.30;96962.96;110149;1242;69322;-67
2023/08/04 07:27:45;;;;;;;7.00;6.30;;;;;;;31.30;55.65;96963.86;110191;1242;59753;-67
2023/08/04 07:30:15;;;;;;;8.10;7.40;;;;;;;31.85;54.34;96971.14;110166;1243;59678;-67
2023/08/04 07:32:44;;;;;;;7.90;7.10;;;;;;;31.95;53.41;96973.06;110182;1242;71367;-67
2023/08/04 07:35:13;;;;;;;7.90;7.20;;;;;;;32.18;51.87;96973.23;110150;1241;69276;-68
2023/08/04 07:37:44;;;;;;;8.20;7.10;;;;;;;32.47;50.04;96974.95;110193;1242;69882;-68
2023/08/04 07:40:14;;;;;;;8.30;7.50;;;;;;;32.58;50.26;96974.73;110200;1242;59669;-68
2023/08/04 07:42:43;;;;;;;8.70;7.90;;;;;;;32.85;49.44;96971.40;110150;1240;59747;-68
2023/08/04 07:45:14;;;;;;;9.80;7.70;;;;;;;32.43;48.73;96970.80;110182;1241;71997;-68
2023/08/04 07:47:43;;;;;;;8.90;8.00;;;;;;;32.27;49.18;96973.63;110187;1241;69315;-67
2023/08/04 07:50:13;;;;;;;8.00;7.30;;;;;;;32.62;49.66;96974.50;110205;1242;70359;-68
2023/08/04 07:52:41;;;;;;;8.60;7.80;;;;;;;33.07;48.27;96968.74;110176;1241;59730;-66
2023/08/04 07:55:11;;;;;;;8.50;7.70;;;;;;;33.46;47.41;96964.86;110207;1242;59641;-67
2023/08/04 07:57:41;;;;;;;8.40;7.40;;;;;;;33.32;46.12;96967.09;110206;1242;71414;-67
2023/08/04 08:00:11;;;;;;;8.70;8.00;;;;;;;33.26;46.87;96962.41;110208;1242;69799;-70
2023/08/04 08:02:40;;;;;;;8.30;7.50;;;;;;;33.39;45.29;96965.85;110190;1243;70079;-68
2023/08/04 08:05:10;;;;;;;8.30;7.50;;;;;;;33.39;44.42;96961.73;110228;1242;59682;-69
2023/08/04 08:07:39;;;;;;;8.10;7.30;;;;;;;33.21;44.40;96961.81;110214;1242;59715;-70
2023/08/04 08:10:13;;;;;;;7.80;7.10;;;;;;;33.23;44.83;96961.15;110211;1241;71757;-68
2023/08/04 08:12:43;;;;;;;7.60;6.90;;;;;;;33.60;44.71;96960.16;110220;1242;69786;-69
2023/08/04 08:15:13;;;;;;;8.10;7.40;;;;;;;33.99;43.78;96961.81;110203;1249;69277;-68
2023/08/04 08:17:43;;;;;;;7.90;7.20;;;;;;;34.20;42.86;96961.09;110150;1242;59740;-68
2023/08/04 08:20:13;;;;;;;7.80;7.00;;;;;;;34.24;42.43;96960.48;110179;1242;59675;-67
2023/08/04 08:22:42;;;;;;;7.90;7.10;;;;;;;34.37;42.50;96959.75;110196;1242;71944;-69
2023/08/04 08:25:12;;;;;;;7.00;6.40;;;;;;;34.45;42.00;96957.48;110190;1242;70024;-68
2023/08/04 08:27:41;;;;;;;7.10;6.50;;;;;;;34.76;42.49;96958.13;110120;1245;69504;-68
2023/08/04 08:30:11;;;;;;;8.10;7.30;;;;;;;34.91;41.41;96957.60;110171;1242;59695;-69
2023/08/04 08:32:41;;;;;;;7.50;6.80;;;;;;;34.74;40.99;96957.92;110212;1242;59766;-68
2023/08/04 08:35:10;;;;;;;6.70;6.10;;;;;;;35.09;41.36;96958.24;110213;1241;71352;-68
2023/08/04 08:37:39;;;;;;;7.90;7.10;;;;;;;34.80;39.58;96957.52;110212;1242;69218;-68
2023/08/04 08:40:10;;;;;;;8.50;7.70;;;;;;;34.61;40.81;96957.98;110164;1242;69272;-68
2023/08/04 08:42:39;;;;;;;7.60;6.80;;;;;;;34.87;41.17;96956.96;110144;1242;59682;-68
2023/08/04 08:45:09;;;;;;;7.20;6.40;;;;;;;35.17;40.79;96955.62;110213;1242;60076;-68
2023/08/04 08:47:38;;;;;;;7.20;6.50;;;;;;;35.58;39.82;96952.58;110167;1242;70463;-66
2023/08/04 08:50:09;;;;;;;8.00;7.20;;;;;;;35.76;39.75;96952.82;110189;1240;69807;-68
2023/08/04 08:52:39;;;;;;;6.50;5.80;;;;;;;36.06;39.31;96952.16;110197;1240;69628;-68
2023/08/04 08:55:09;;;;;;;7.50;6.70;;;;;;;36.01;38.39;96946.42;110196;1248;59678;-69
2023/08/04 08:57:39;;;;;;;6.90;6.30;;;;;;;36.34;38.85;96945.77;110149;1241;59712;-68
2023/08/04 09:00:09;;;;;;;7.90;6.60;;;;;;;36.46;37.51;96939.64;110187;1242;71828;-69
2023/08/04 09:02:39;;;;;;;7.50;6.90;;;;;;;36.62;37.88;96939.35;110165;1242;70094;-68
2023/08/04 09:05:10;;;;;;;7.10;6.50;;;;;;;36.75;37.92;96943.92;110154;1242;69858;-69
2023/08/04 09:07:39;;;;;;;8.30;7.40;;;;;;;36.77;37.83;96944.55;110193;1242;59744;-68
2023/08/04 09:10:08;;;;;;;7.70;6.40;;;;;;;36.86;38.25;96944.39;110195;1242;59741;-68
2023/08/04 09:12:37;;;;;;;6.80;6.10;;;;;;;36.84;39.36;96938.37;110179;1242;70725;-68
2023/08/04 09:15:07;;;;;;;7.40;6.70;;;;;;;37.26;38.94;96938.91;110180;1241;67792;-69
2023/08/04 09:17:38;;;;;;;6.50;5.90;;;;;;;37.47;37.61;96941.67;110180;1245;69856;-67
2023/08/04 09:20:10;;;;;;;6.60;6.00;;;;;;;37.80;37.03;96942.70;110167;1241;59686;-68
2023/08/04 09:22:43;;;;;;;6.20;5.50;;;;;;;38.09;36.64;96940.56;110222;1240;59695;-68
2023/08/04 09:25:13;;;;;;;6.50;5.90;;;;;;;38.30;35.25;96939.13;110166;1242;72095;-69
2023/08/04 09:27:43;;;;;;;6.60;5.90;;;;;;;38.48;34.16;96941.90;109926;1245;360628;-69
2023/08/04 09:30:13;;;;;;;7.50;6.40;;;;;;;38.54;33.81;96939.70;110194;1241;68400;-69
2023/08/04 09:32:42;;;;;;;6.80;6.20;;;;;;;38.22;34.38;96936.80;110181;1249;59728;-66
2023/08/04 09:35:12;;;;;;;6.50;5.80;;;;;;;38.34;34.70;96938.77;110175;1241;59679;-68
2023/08/04 09:37:42;;;;;;;6.90;6.30;;;;;;;38.48;33.92;96933.58;110196;1241;70598;-68
2023/08/04 09:40:13;;;;;;;6.00;5.50;;;;;;;38.38;35.22;96931.64;110208;1241;69232;-69
2023/08/04 09:42:42;;;;;;;6.90;6.20;;;;;;;38.78;34.44;96933.08;110204;1243;69824;-69
2023/08/04 09:45:18;;;;;;;6.20;5.60;;;;;;;38.71;33.44;96934.71;110174;1240;59799;-68
2023/08/04 09:47:49;;;;;;;6.60;6.00;;;;;;;39.30;33.38;96930.31;110181;1241;59725;-67
2023/08/04 09:50:19;;;;;;;6.30;5.80;;;;;;;39.60;32.22;96932.31;110197;1242;71955;-67
2023/08/04 09:53:01;;;;;;;6.40;5.80;;;;;;;39.53;31.94;96932.48;110169;1243;69914;-68
2023/08/04 09:55:31;;;;;;;6.20;5.60;;;;;;;39.40;31.89;96929.98;110176;1242;69854;-68
2023/08/04 09:58:01;;;;;;;5.80;5.20;;;;;;;39.73;31.99;96925.48;110201;1242;59682;-67
2023/08/04 10:00:30;;;;;;;5.20;4.70;;;;;;;39.99;31.02;96923.96;110163;1242;59643;-67
2023/08/04 10:02:59;;;;;;;5.90;5.40;;;;;;;39.69;31.61;96927.27;110138;1240;71678;-69
2023/08/04 10:05:29;;;;;;;6.10;5.30;;;;;;;39.62;31.39;96926.13;110207;1242;69827;-68
2023/08/04 10:07:58;;;;;;;6.50;5.90;;;;;;;39.81;31.06;96921.15;110185;1240;69852;-68
2023/08/04 10:10:28;;;;;;;6.20;5.60;;;;;;;39.77;30.58;96918.84;110185;1242;59794;-69
2023/08/04 10:12:58;;;;;;;5.80;5.20;;;;;;;39.70;31.04;96921.09;110223;1241;59749;-67
2023/08/04 10:15:27;;;;;;;6.00;5.40;;;;;;;39.86;31.74;96922.27;110254;1241;71442;-68
2023/08/04 10:17:57;;;;;;;5.60;5.10;;;;;;;40.21;31.19;96925.65;110278;1242;69259;-68
2023/08/04 10:20:27;;;;;;;5.80;5.30;;;;;;;40.14;30.63;96924.08;110211;1242;69046;-69
2023/08/04 10:22:57;;;;;;;5.50;4.90;;;;;;;40.16;30.29;96926.82;110233;1241;59740;-66
2023/08/04 10:25:26;;;;;;;5.60;5.10;;;;;;;40.25;30.96;96927.31;110225;1242;59712;-68
2023/08/04 10:27:57;;;;;;;6.80;6.20;;;;;;;40.33;30.54;96925.84;110196;1242;71368;-68
2023/08/04 10:30:27;;;;;;;5.70;5.20;;;;;;;40.09;30.81;96925.36;110238;1243;68408;-68
2023/08/04 10:33:20;;;;;;;6.50;5.60;;;;;;;39.62;31.54;96921.27;110191;1241;69782;-68
2023/08/04 10:36:08;;;;;;;6.00;5.40;;;;;;;39.70;31.25;96915.23;110193;1242;59827;-68
2023/08/04 10:38:45;;;;;;;5.20;4.70;;;;;;;39.88;29.98;96916.05;110198;1246;59628;-69
2023/08/04 10:41:15;;;;;;;6.60;6.00;;;;;;;39.61;30.03;96917.60;110216;1242;71441;-68
2023/08/04 10:44:00;;;;;;;5.70;5.20;;;;;;;39.40;30.83;96918.67;110190;1243;70173;-68
2023/08/04 10:46:32;;;;;;;5.10;4.70;;;;;;;39.17;30.81;96912.62;110153;1242;69825;-67
2023/08/04 10:49:02;;;;;;;6.40;5.80;;;;;;;39.40;30.96;96911.45;110168;1243;59662;-69
2023/08/04 10:51:32;;;;;;;5.90;5.30;;;;;;;39.65;30.94;96910.38;110218;1249;59681;-68
2023/08/04 10:54:01;;;;;;;6.10;5.50;;;;;;;39.59;30.52;96911.34;110132;1243;71438;-69
2023/08/04 10:56:30;;;;;;;6.60;6.00;;;;;;;39.31;30.32;96910.09;110185;1242;69593;-66
2023/08/04 10:58:59;;;;;;;5.40;4.90;;;;;;;38.71;29.31;96905.77;110184;1242;69958;-68
2023/08/04 11:01:28;;;;;;;5.20;4.80;;;;;;;39.02;30.59;96898.35;110188;1242;59701;-68
2023/08/04 11:03:58;;;;;;;5.60;5.10;;;;;;;39.32;30.81;96904.52;110182;1242;59706;-68
2023/08/04 11:06:27;;;;;;;5.90;5.30;;;;;;;39.32;29.83;96901.02;110177;1242;70616;-66
2023/08/04 11:08:56;;;;;;;5.70;5.20;;;;;;;39.01;28.62;96901.21;110150;1242;70032;-68
2023/08/04 11:11:25;;;;;;;5.90;5.20;;;;;;;38.75;29.01;96900.91;110168;1243;69919;-67
2023/08/04 11:13:58;;;;;;;5.90;5.30;;;;;;;38.67;29.67;96903.67;110179;1243;59673;-68
2023/08/04 11:16:30;;;;;;;5.30;4.80;;;;;;;38.67;30.14;96898.69;110186;1242;59703;-67
2023/08/04 11:18:59;;;;;;;5.90;5.40;;;;;;;38.34;31.26;96899.08;110199;1241;71990;-66
2023/08/04 11:21:29;;;;;;;5.60;5.10;;;;;;;38.30;30.42;96899.06;110164;1242;69452;-68
2023/08/04 11:23:58;;;;;;;5.50;4.60;;;;;;;37.86;30.46;96893.02;110160;1242;69812;-68
2023/08/04 11:26:29;;;;;;;4.80;4.30;;;;;;;37.84;29.93;96891.84;110159;1241;59711;-69
2023/08/04 11:28:59;;;;;;;5.90;5.30;;;;;;;38.06;30.65;96888.30;110196;1242;59685;-68
2023/08/04 11:31:32;;;;;;;6.10;5.60;;;;;;;38.51;31.74;96894.23;110201;1241;71400;-68
2023/08/04 11:34:02;;;;;;;5.00;4.50;;;;;;;38.72;31.36;96895.05;110155;1241;69664;-68